Time;durP1;ratioP1;P1;durP2;ratioP2;P2;SDS_P1;SDS_P2;PMS_P1;PMS_P2;Temp;Humidity;BMP_temperature;BMP_pressure;BME280_temperature;BME280_humidity;BME280_pressure;Samples;Min_cycle;Max_cycle;Signal;HPM_P1;HPM_P2
2022/08/29 00:00:18;;;;;;;7.95;2.95;;;;;;;14.61;79.08;102012.84;6185449;23;20431;-87
2022/08/29 00:02:50;;;;;;;7.07;3.05;;;;;;;14.56;78.97;102013.44;6186770;23;20009;-88
2022/08/29 00:05:24;;;;;;;6.73;3.07;;;;;;;14.58;79.16;102015.97;6185332;23;20506;-88
2022/08/29 00:07:52;;;;;;;10.18;3.97;;;;;;;14.52;79.52;102006.72;6184867;23;20332;-88
2022/08/29 00:10:22;;;;;;;4.78;3.08;;;;;;;14.51;80.69;102016.00;6160375;23;20339;-88
2022/08/29 00:12:48;;;;;;;7.78;3.20;;;;;;;14.46;80.28;102021.25;6185462;23;20012;-88
2022/08/29 00:15:16;;;;;;;5.83;3.30;;;;;;;14.45;81.13;102025.00;6160048;23;20012;-88
2022/08/29 00:17:45;;;;;;;8.50;3.28;;;;;;;14.44;80.73;102014.31;6185219;23;20036;-87
2022/08/29 00:20:18;;;;;;;10.48;4.30;;;;;;;14.38;81.12;102011.38;6185140;23;20015;-88
2022/08/29 00:22:47;;;;;;;9.80;3.67;;;;;;;14.34;80.44;102012.84;6184852;23;20005;-87
2022/08/29 00:25:15;;;;;;;8.33;3.60;;;;;;;14.32;80.71;102005.94;6185315;23;20361;-87
2022/08/29 00:27:43;;;;;;;14.63;4.43;;;;;;;14.29;81.12;102012.66;6184942;23;20040;-87
2022/08/29 00:30:09;;;;;;;10.57;4.15;;;;;;;14.29;81.48;102018.13;6184897;23;20323;-87
2022/08/29 00:32:41;;;;;;;10.30;3.92;;;;;;;14.26;81.35;102007.63;6185068;23;20338;-87
2022/08/29 00:35:17;;;;;;;7.82;4.25;;;;;;;14.21;81.23;102008.25;6185051;23;20327;-88
2022/08/29 00:37:45;;;;;;;9.20;4.17;;;;;;;14.20;81.75;102003.00;6183657;23;20020;-86
2022/08/29 00:40:19;;;;;;;9.63;4.30;;;;;;;14.17;82.07;102014.34;6184975;23;20005;-87
2022/08/29 00:42:45;;;;;;;11.48;4.80;;;;;;;14.12;82.21;102008.69;6185126;23;20451;-87
2022/08/29 00:45:12;;;;;;;16.20;4.50;;;;;;;14.08;82.18;102008.25;6159694;23;20036;-88
2022/08/29 00:47:47;;;;;;;20.63;5.10;;;;;;;14.07;82.24;102019.38;6184515;23;20039;-87
2022/08/29 00:50:28;;;;;;;8.57;4.03;;;;;;;14.05;83.17;102016.88;6184663;23;20100;-87
2022/08/29 00:52:56;;;;;;;10.00;4.82;;;;;;;14.01;82.40;102013.72;6184652;23;20057;-87
2022/08/29 00:55:25;;;;;;;11.75;5.03;;;;;;;13.98;83.82;102008.69;6186225;23;20012;-88
2022/08/29 00:57:58;;;;;;;12.90;5.07;;;;;;;13.97;83.55;102011.63;6184854;23;20015;-88
2022/08/29 01:00:27;;;;;;;10.40;4.75;;;;;;;13.94;84.50;102014.78;6184721;23;20375;-87
2022/08/29 01:02:53;;;;;;;12.20;5.60;;;;;;;13.92;84.28;102012.28;6184801;23;20019;-87
2022/08/29 01:08:18;;;;;;;7.93;5.20;;;;;;;13.82;83.69;102012.66;6185897;23;20064;-88
2022/08/29 01:13:38;;;;;;;12.73;5.00;;;;;;;13.72;84.80;102031.34;6186108;23;20064;-87
2022/08/29 01:16:05;;;;;;;11.00;5.25;;;;;;;13.67;84.98;102025.66;6184419;23;20350;-87
2022/08/29 01:18:36;;;;;;;10.10;5.00;;;;;;;13.64;84.87;102029.66;6184765;23;20095;-87
2022/08/29 01:21:11;;;;;;;12.50;5.28;;;;;;;13.61;84.84;102023.75;6185684;23;20007;-88
2022/08/29 01:24:12;;;;;;;9.25;4.85;;;;;;;13.58;84.60;102024.16;6186346;23;20005;-88
2022/08/29 01:26:37;;;;;;;10.85;5.88;;;;;;;13.50;85.08;102030.66;6184634;23;20009;-87
2022/08/29 01:29:09;;;;;;;10.77;5.87;;;;;;;13.47;85.26;102023.72;6184135;23;20016;-88
2022/08/29 01:31:45;;;;;;;11.90;5.90;;;;;;;13.46;85.30;102024.78;6185762;23;20144;-87
2022/08/29 01:34:19;;;;;;;11.13;5.65;;;;;;;13.43;85.93;102025.19;6184790;23;20012;-88
2022/08/29 01:36:52;;;;;;;15.18;6.45;;;;;;;13.39;86.41;102015.75;6183630;23;20005;-87
2022/08/29 01:39:25;;;;;;;14.88;6.45;;;;;;;13.39;86.16;102009.44;6183989;23;20040;-87
2022/08/29 01:41:53;;;;;;;10.13;6.33;;;;;;;13.38;85.89;102007.78;6184007;23;20101;-88
2022/08/29 01:44:20;;;;;;;14.73;6.63;;;;;;;13.37;85.97;102003.38;6184639;23;20431;-88
2022/08/29 01:46:52;;;;;;;15.65;6.35;;;;;;;13.35;85.73;102013.66;6184569;23;20016;-88
2022/08/29 01:49:21;;;;;;;13.43;6.55;;;;;;;13.31;86.28;102014.00;6162089;23;20016;-87
2022/08/29 01:51:49;;;;;;;13.73;6.70;;;;;;;13.28;86.70;102010.84;6185937;23;20158;-88
2022/08/29 01:54:16;;;;;;;12.13;6.67;;;;;;;13.27;86.81;102015.47;6186126;23;20346;-88
2022/08/29 01:56:48;;;;;;;12.73;6.10;;;;;;;13.24;86.84;102015.03;6186598;23;20012;-87
2022/08/29 01:59:17;;;;;;;15.63;7.30;;;;;;;13.21;87.32;102008.09;6187000;23;20005;-87
2022/08/29 02:01:49;;;;;;;15.55;6.82;;;;;;;13.21;87.21;102020.91;6186566;23;20064;-87
2022/08/29 02:04:15;;;;;;;16.25;7.03;;;;;;;13.15;87.41;102017.97;6186830;23;20335;-87
2022/08/29 02:06:40;;;;;;;14.93;6.90;;;;;;;13.11;87.09;102022.13;6210932;23;20013;-87
2022/08/29 02:09:12;;;;;;;12.07;7.03;;;;;;;13.11;87.55;102022.13;6186087;23;20450;-87
2022/08/29 02:11:38;;;;;;;14.93;6.82;;;;;;;13.07;87.76;102023.56;6185980;23;20001;-88
2022/08/29 02:14:11;;;;;;;14.75;7.88;;;;;;;13.06;88.43;102010.97;6186005;23;20092;-88
2022/08/29 02:16:37;;;;;;;11.30;6.88;;;;;;;13.06;88.40;102016.44;6186336;23;20012;-87
2022/08/29 02:19:02;;;;;;;14.20;6.97;;;;;;;13.03;88.38;102019.56;6186371;23;20028;-88
2022/08/29 02:21:30;;;;;;;12.40;6.83;;;;;;;13.02;88.82;102025.22;6161569;23;20009;-88
2022/08/29 02:24:02;;;;;;;12.43;6.90;;;;;;;13.01;88.55;102032.56;6187133;23;20072;-88
2022/08/29 02:26:30;;;;;;;13.63;7.40;;;;;;;13.01;88.24;102028.97;6185848;23;20005;-88
2022/08/29 02:28:56;;;;;;;12.32;7.05;;;;;;;13.00;88.22;102028.16;6185818;23;20005;-88
2022/08/29 02:31:27;;;;;;;15.38;7.43;;;;;;;13.01;88.54;102034.44;6185870;23;20028;-87
2022/08/29 02:33:53;;;;;;;15.77;7.93;;;;;;;12.99;88.84;102037.34;6161403;23;20013;-88
2022/08/29 02:36:23;;;;;;;13.27;7.43;;;;;;;12.98;88.49;102039.25;6185304;23;20013;-88
2022/08/29 02:38:48;;;;;;;17.70;8.45;;;;;;;12.98;89.12;102032.97;6185167;23;20379;-87
2022/08/29 02:41:19;;;;;;;17.13;7.90;;;;;;;12.96;88.18;102032.31;6185993;23;20017;-88
2022/08/29 02:43:48;;;;;;;13.05;7.47;;;;;;;12.97;88.98;102042.19;6185342;23;20096;-87
2022/08/29 02:46:16;;;;;;;16.40;7.95;;;;;;;12.95;88.71;102042.38;6186258;23;20001;-87
2022/08/29 02:48:43;;;;;;;15.55;7.80;;;;;;;12.92;88.69;102036.50;6186055;23;20012;-87
2022/08/29 02:51:08;;;;;;;19.05;7.88;;;;;;;12.91;88.26;102035.66;6161522;23;20036;-88
2022/08/29 02:53:34;;;;;;;17.20;7.27;;;;;;;12.92;88.72;102045.50;6186085;23;20009;-87
2022/08/29 02:56:00;;;;;;;15.33;7.77;;;;;;;12.92;88.86;102042.78;6186043;23;20407;-87
2022/08/29 02:58:26;;;;;;;15.65;7.20;;;;;;;12.88;88.67;102043.41;6185634;23;20013;-87
2022/08/29 03:00:59;;;;;;;18.90;8.20;;;;;;;12.86;89.10;102046.31;6185353;23;20031;-88
2022/08/29 03:03:33;;;;;;;16.60;7.40;;;;;;;12.87;89.37;102042.53;6186437;23;20104;-87
2022/08/29 03:06:01;;;;;;;16.67;7.30;;;;;;;12.85;89.09;102035.63;6185593;23;20506;-87
2022/08/29 03:08:28;;;;;;;11.60;6.80;;;;;;;12.84;88.70;102036.66;6185799;23;20012;-87
2022/08/29 03:10:56;;;;;;;14.52;6.63;;;;;;;12.81;89.10;102040.63;6187259;23;20032;-87
2022/08/29 03:13:30;;;;;;;14.60;6.53;;;;;;;12.76;89.10;102043.94;6185813;23;20009;-87
2022/08/29 03:15:57;;;;;;;19.90;6.82;;;;;;;12.75;89.16;102035.97;6186028;23;20005;-87
2022/08/29 03:18:42;;;;;;;12.43;6.30;;;;;;;12.73;89.33;102038.91;6187048;23;20419;-87
2022/08/29 03:21:19;;;;;;;14.50;7.20;;;;;;;12.69;89.45;102037.63;6160967;23;20441;-87
2022/08/29 03:23:46;;;;;;;18.35;8.20;;;;;;;12.67;89.96;102028.81;6185645;23;20013;-88
2022/08/29 03:26:21;;;;;;;14.82;7.85;;;;;;;12.65;90.32;102033.63;6160556;23;20009;-88
2022/08/29 03:28:53;;;;;;;16.00;7.20;;;;;;;12.64;89.85;102032.78;6186366;23;20009;-88
2022/08/29 03:31:26;;;;;;;11.85;6.55;;;;;;;12.61;89.10;102026.91;6161150;23;20005;-87
2022/08/29 03:33:55;;;;;;;12.47;6.07;;;;;;;12.62;88.81;102020.41;6186000;23;20099;-87
2022/08/29 03:36:26;;;;;;;10.93;6.55;;;;;;;12.62;88.80;102032.16;6184012;23;20016;-88
2022/08/29 03:39:00;;;;;;;12.32;6.10;;;;;;;12.60;88.54;102025.22;6184613;23;20427;-87
2022/08/29 03:41:31;;;;;;;16.92;6.15;;;;;;;12.57;88.76;102020.19;6186841;23;20431;-87
2022/08/29 03:44:04;;;;;;;16.15;5.57;;;;;;;12.58;88.54;102010.97;6185491;23;20005;-87
2022/08/29 03:46:50;;;;;;;12.67;5.87;;;;;;;12.60;88.79;102001.53;6185726;23;20419;-87
2022/08/29 03:49:16;;;;;;;15.57;6.00;;;;;;;12.60;88.58;101990.66;6184482;23;20461;-87
2022/08/29 03:51:50;;;;;;;10.02;6.28;;;;;;;12.62;89.01;101999.47;6185593;23;20009;-87
2022/08/29 03:54:19;;;;;;;14.07;6.50;;;;;;;12.60;89.27;101993.38;6185603;23;20001;-88
2022/08/29 03:56:45;;;;;;;14.90;6.60;;;;;;;12.60;89.08;101995.28;6186563;23;20005;-88
2022/08/29 03:59:11;;;;;;;16.65;7.63;;;;;;;12.63;89.43;101997.59;6185162;23;20527;-88
2022/08/29 04:01:42;;;;;;;18.35;7.47;;;;;;;12.63;89.21;101994.88;6184941;23;20084;-87
2022/08/29 04:07:08;;;;;;;15.03;7.37;;;;;;;12.65;90.63;101990.03;6164119;23;20024;-88
2022/08/29 04:09:49;;;;;;;15.82;7.78;;;;;;;12.65;90.46;101990.03;6185358;23;20009;-88
2022/08/29 04:12:20;;;;;;;16.92;8.30;;;;;;;12.65;90.03;101995.50;6160850;23;20542;-88
2022/08/29 04:14:46;;;;;;;14.30;7.50;;;;;;;12.64;90.28;102002.00;6185407;23;20446;-87
2022/08/29 04:17:12;;;;;;;16.53;8.10;;;;;;;12.65;90.54;102003.66;6185258;23;20005;-87
2022/08/29 04:19:43;;;;;;;15.30;7.93;;;;;;;12.66;90.23;102009.97;6185201;23;20013;-87
2022/08/29 04:22:12;;;;;;;17.07;8.50;;;;;;;12.67;90.11;102012.50;6161109;23;20043;-87
2022/08/29 04:24:40;;;;;;;17.42;8.55;;;;;;;12.70;90.02;102005.81;6185583;23;20005;-87
2022/08/29 04:27:06;;;;;;;19.63;8.32;;;;;;;12.69;90.09;102010.41;6185179;23;20009;-87
2022/08/29 04:29:33;;;;;;;17.03;7.93;;;;;;;12.68;90.51;102008.72;6160339;23;20366;-87
2022/08/29 04:32:01;;;;;;;18.27;7.63;;;;;;;12.67;90.40;102017.06;6184936;23;20339;-87
2022/08/29 04:34:27;;;;;;;15.82;7.90;;;;;;;12.62;90.60;102017.69;6185026;23;20331;-88
2022/08/29 04:36:52;;;;;;;15.10;7.77;;;;;;;12.61;90.50;102027.75;6185990;23;20009;-87
2022/08/29 04:39:18;;;;;;;15.15;7.43;;;;;;;12.56;90.24;102022.06;6184808;23;20040;-87
2022/08/29 04:41:51;;;;;;;15.10;7.87;;;;;;;12.57;90.01;102025.63;6185031;23;20013;-87
2022/08/29 04:44:16;;;;;;;12.05;6.93;;;;;;;12.55;90.24;102024.97;6185440;23;20016;-86
2022/08/29 04:46:41;;;;;;;17.67;7.23;;;;;;;12.49;90.09;102018.47;6185007;23;20013;-87
2022/08/29 04:49:08;;;;;;;14.10;7.03;;;;;;;12.44;90.23;102020.94;6184798;23;20036;-87
2022/08/29 04:51:34;;;;;;;14.63;7.28;;;;;;;12.40;90.07;102022.34;6184812;23;20008;-87
2022/08/29 04:54:00;;;;;;;15.05;6.78;;;;;;;12.40;90.35;102028.66;6184490;23;20490;-86
2022/08/29 04:56:38;;;;;;;13.63;6.65;;;;;;;12.39;90.92;102037.03;6184728;23;20041;-88
2022/08/29 04:59:03;;;;;;;14.80;7.00;;;;;;;12.37;90.88;102034.50;6184428;23;20181;-87
2022/08/29 05:01:29;;;;;;;17.97;7.23;;;;;;;12.36;90.95;102027.38;6184887;23;20091;-87
2022/08/29 05:03:59;;;;;;;14.90;6.18;;;;;;;12.36;90.48;102029.25;6160358;23;20431;-87
2022/08/29 05:06:36;;;;;;;11.37;6.27;;;;;;;12.35;90.58;102033.84;6135679;23;20099;-87
2022/08/29 05:09:04;;;;;;;11.98;5.75;;;;;;;12.35;90.30;102022.97;6184824;23;20015;-87
2022/08/29 05:11:32;;;;;;;14.07;6.15;;;;;;;12.36;90.34;102012.94;6184875;23;20419;-87
2022/08/29 05:13:59;;;;;;;13.48;6.20;;;;;;;12.38;90.62;102025.28;6184425;23;20009;-86
2022/08/29 05:16:28;;;;;;;9.93;5.82;;;;;;;12.40;90.50;102028.66;6159883;23;20023;-87
2022/08/29 05:18:57;;;;;;;13.57;6.10;;;;;;;12.44;90.35;102035.38;6186393;23;20055;-86
2022/08/29 05:21:26;;;;;;;15.73;6.18;;;;;;;12.51;90.61;102031.88;6184743;23;20083;-87
2022/08/29 05:24:06;;;;;;;14.27;6.18;;;;;;;12.55;90.63;102038.56;6184046;23;20056;-87
2022/08/29 05:26:37;;;;;;;11.55;5.95;;;;;;;12.62;89.99;102047.63;6184062;23;20016;-86
2022/08/29 05:29:09;;;;;;;15.63;5.43;;;;;;;12.64;89.51;102051.84;6184296;23;20005;-86
2022/08/29 05:31:36;;;;;;;12.80;5.53;;;;;;;12.67;89.71;102050.59;6185325;23;20102;-85
2022/08/29 05:34:04;;;;;;;14.35;5.90;;;;;;;12.73;89.41;102054.41;6184523;23;20095;-87
2022/08/29 05:36:30;;;;;;;12.65;5.68;;;;;;;12.77;90.23;102058.41;6183547;23;20088;-87
2022/08/29 05:38:55;;;;;;;14.45;5.57;;;;;;;12.82;89.77;102062.22;6183839;23;20077;-87
2022/08/29 05:41:21;;;;;;;12.20;5.30;;;;;;;12.89;89.09;102055.94;6159609;23;20068;-87
2022/08/29 05:43:46;;;;;;;12.90;5.18;;;;;;;12.95;88.68;102064.19;6184835;23;20005;-87
2022/08/29 05:46:15;;;;;;;7.73;4.40;;;;;;;13.00;88.19;102058.13;6160121;23;20005;-85
2022/08/29 05:48:41;;;;;;;7.85;4.80;;;;;;;13.07;87.54;102060.88;6184312;23;20420;-86
2022/08/29 05:51:13;;;;;;;15.73;5.13;;;;;;;13.17;87.77;102064.06;6159203;23;20147;-86
2022/08/29 05:53:41;;;;;;;11.40;5.27;;;;;;;13.24;87.28;102062.22;6186316;23;20001;-87
2022/08/29 05:56:11;;;;;;;11.63;5.43;;;;;;;13.36;88.06;102065.22;6184375;23;20032;-87
2022/08/29 05:58:37;;;;;;;12.25;5.07;;;;;;;13.48;87.03;102058.13;6160599;23;20013;-87
2022/08/29 06:01:02;;;;;;;11.57;5.00;;;;;;;13.56;86.50;102059.00;6183916;23;20019;-87
2022/08/29 06:03:28;;;;;;;10.68;4.63;;;;;;;13.65;86.20;102063.19;6184368;23;20084;-86
2022/08/29 06:05:53;;;;;;;14.23;5.20;;;;;;;13.76;85.69;102067.19;6184875;23;20009;-87
2022/08/29 06:08:19;;;;;;;12.17;4.93;;;;;;;13.82;85.22;102072.69;6183271;23;20017;-86
2022/08/29 06:10:46;;;;;;;14.18;4.80;;;;;;;13.88;85.12;102065.56;6184472;23;20324;-86
2022/08/29 06:13:13;;;;;;;13.82;5.20;;;;;;;13.95;84.72;102068.28;6184241;23;20009;-90
2022/08/29 06:15:43;;;;;;;10.18;4.93;;;;;;;14.03;84.10;102070.81;6184074;23;20009;-86
2022/08/29 06:18:08;;;;;;;12.23;4.93;;;;;;;14.13;84.75;102075.84;6184410;23;20081;-85
2022/08/29 06:20:37;;;;;;;12.93;5.00;;;;;;;14.16;84.70;102073.56;6159631;23;20133;-86
2022/08/29 06:23:02;;;;;;;11.13;4.67;;;;;;;14.21;84.61;102078.38;6185797;23;20001;-87
2022/08/29 06:25:28;;;;;;;10.98;4.40;;;;;;;14.29;84.16;102080.91;6185426;23;20013;-86
2022/08/29 06:27:53;;;;;;;15.40;4.97;;;;;;;14.34;84.03;102074.81;6183837;23;20428;-86
2022/08/29 06:30:19;;;;;;;9.93;4.37;;;;;;;14.42;83.21;102082.78;6184757;23;20001;-86
2022/08/29 06:32:52;;;;;;;14.00;4.45;;;;;;;14.54;83.59;102086.56;6185580;23;20551;-87
2022/08/29 06:35:17;;;;;;;13.10;4.38;;;;;;;14.66;82.34;102084.06;6185681;23;20092;-86
2022/08/29 06:37:43;;;;;;;7.17;4.33;;;;;;;14.80;81.91;102084.03;6185197;23;20416;-87
2022/08/29 06:40:08;;;;;;;11.93;4.57;;;;;;;14.87;80.44;102085.69;6185715;23;20009;-86
2022/08/29 06:42:34;;;;;;;9.52;4.60;;;;;;;14.95;80.73;102092.00;6137440;23;20013;-86
2022/08/29 06:44:59;;;;;;;15.23;4.10;;;;;;;14.98;80.06;102095.13;6185524;23;20390;-86
2022/08/29 06:47:25;;;;;;;10.47;4.53;;;;;;;15.07;78.58;102098.47;6186026;23;20019;-86
2022/08/29 06:49:50;;;;;;;11.05;4.63;;;;;;;15.19;78.61;102102.22;6185617;23;20012;-86
2022/08/29 06:52:16;;;;;;;11.87;5.10;;;;;;;15.30;78.58;102099.88;6160578;23;20156;-86
2022/08/29 06:54:41;;;;;;;11.70;4.90;;;;;;;15.41;78.66;102097.28;6185578;23;20422;-87
2022/08/29 06:57:09;;;;;;;9.82;4.28;;;;;;;15.63;77.41;102101.59;6161170;23;20013;-86
2022/08/29 06:59:39;;;;;;;14.30;4.47;;;;;;;15.85;76.73;102088.44;6185870;23;20020;-86
2022/08/29 07:02:05;;;;;;;10.88;4.50;;;;;;;16.06;75.15;102089.97;6185688;23;20064;-86
2022/08/29 07:04:31;;;;;;;13.87;5.00;;;;;;;16.29;73.61;102098.44;6186904;23;20331;-86
2022/08/29 07:06:56;;;;;;;12.43;5.22;;;;;;;16.54;72.70;102094.03;6184751;23;20001;-86
2022/08/29 07:09:22;;;;;;;11.53;5.27;;;;;;;16.73;71.14;102098.47;6187099;23;20009;-87
2022/08/29 07:11:47;;;;;;;8.07;4.60;;;;;;;16.94;70.18;102093.66;6185661;23;20275;-87
2022/08/29 07:14:13;;;;;;;12.33;5.10;;;;;;;17.27;69.43;102086.94;6185204;23;20043;-86
2022/08/29 07:16:40;;;;;;;13.15;4.90;;;;;;;17.46;67.05;102090.47;6161073;23;20435;-86
2022/08/29 07:19:09;;;;;;;11.63;4.90;;;;;;;17.69;65.36;102089.75;6185741;23;20021;-86
2022/08/29 07:21:35;;;;;;;15.30;6.88;;;;;;;17.96;63.75;102083.91;6185730;23;20028;-86
2022/08/29 07:24:01;;;;;;;9.40;4.82;;;;;;;18.17;62.75;102090.75;6186852;23;20001;-86
2022/08/29 07:26:30;;;;;;;10.03;4.77;;;;;;;18.36;62.88;102083.25;6185186;23;20041;-87
2022/08/29 07:29:00;;;;;;;11.90;4.67;;;;;;;18.49;60.88;102085.75;6185564;23;20371;-86
2022/08/29 07:31:26;;;;;;;12.45;4.00;;;;;;;18.71;59.21;102085.16;6185629;23;20036;-87
2022/08/29 07:33:51;;;;;;;6.95;3.90;;;;;;;18.83;58.03;102079.66;6160303;23;20013;-87
2022/08/29 07:36:17;;;;;;;9.20;3.73;;;;;;;19.01;58.62;102081.44;6184722;23;20008;-87
2022/08/29 07:38:42;;;;;;;7.10;3.33;;;;;;;19.16;57.36;102080.94;6160313;23;20024;-87
2022/08/29 07:41:14;;;;;;;12.17;4.10;;;;;;;19.17;56.06;102069.69;6185531;23;20021;-87
2022/08/29 07:43:41;;;;;;;8.88;3.60;;;;;;;19.26;55.24;102065.47;6185617;23;20017;-87
2022/08/29 07:46:12;;;;;;;14.00;4.07;;;;;;;19.32;55.26;102069.16;6185248;23;20434;-86
2022/08/29 07:48:39;;;;;;;11.52;4.13;;;;;;;19.47;54.56;102076.88;6185605;23;20013;-86
2022/08/29 07:51:14;;;;;;;27.88;5.55;;;;;;;19.56;53.95;102082.81;6185316;23;20009;-87
2022/08/29 07:53:40;;;;;;;42.83;6.43;;;;;;;19.70;53.58;102078.69;6185727;23;20096;-87
2022/08/29 07:56:08;;;;;;;24.05;5.05;;;;;;;19.88;53.28;102088.69;6185388;23;20016;-86
2022/08/29 07:58:33;;;;;;;8.43;3.50;;;;;;;19.94;52.71;102084.94;6186586;23;20005;-86
2022/08/29 08:00:59;;;;;;;12.77;3.17;;;;;;;19.94;51.72;102084.94;6185159;23;20064;-86
2022/08/29 08:03:25;;;;;;;7.60;3.10;;;;;;;20.07;51.08;102083.78;6186904;23;20260;-84
2022/08/29 08:05:52;;;;;;;8.93;2.72;;;;;;;20.26;50.19;102083.56;6160653;23;20040;-85
2022/08/29 08:08:17;;;;;;;7.97;2.85;;;;;;;20.35;49.86;102079.28;6182625;23;20016;-82
2022/08/29 08:10:43;;;;;;;7.43;2.70;;;;;;;20.40;49.69;102082.09;6184703;23;20401;-84
2022/08/29 08:13:09;;;;;;;9.05;3.00;;;;;;;20.42;49.24;102079.13;6185261;23;20323;-85
2022/08/29 08:15:42;;;;;;;8.30;2.60;;;;;;;20.56;49.01;102074.91;6185128;23;20024;-88
2022/08/29 08:18:08;;;;;;;11.27;3.40;;;;;;;20.73;48.09;102069.41;6160993;23;20020;-86
2022/08/29 08:20:34;;;;;;;6.40;2.75;;;;;;;20.98;48.66;102070.84;6184664;23;20012;-85
2022/08/29 08:22:59;;;;;;;6.00;3.00;;;;;;;21.10;47.69;102074.31;6185165;23;20035;-85
2022/08/29 08:25:25;;;;;;;10.20;2.90;;;;;;;21.17;48.19;102072.19;6186410;23;20370;-85
2022/08/29 08:27:51;;;;;;;7.40;2.73;;;;;;;21.31;48.98;102069.03;6184613;23;20012;-86
2022/08/29 08:30:16;;;;;;;8.02;3.10;;;;;;;21.38;48.02;102069.66;6184705;23;20009;-86
2022/08/29 08:32:42;;;;;;;11.50;3.03;;;;;;;21.30;47.23;102081.16;6184723;23;20101;-86
2022/08/29 08:35:08;;;;;;;6.93;3.13;;;;;;;21.30;46.99;102072.88;6160295;23;20016;-86
2022/08/29 08:37:33;;;;;;;6.22;3.05;;;;;;;21.36;46.57;102074.59;6159261;23;20032;-85
2022/08/29 08:40:02;;;;;;;8.70;3.27;;;;;;;21.40;47.36;102080.44;6185222;23;20017;-87
2022/08/29 08:42:43;;;;;;;8.18;2.85;;;;;;;21.57;47.66;102072.09;6185945;23;20072;-88
2022/08/29 08:45:11;;;;;;;9.82;3.00;;;;;;;21.64;44.89;102059.78;6159953;23;20088;-86
2022/08/29 08:47:51;;;;;;;9.52;3.72;;;;;;;21.78;46.35;102064.88;6184393;23;20012;-86
2022/08/29 08:50:42;;;;;;;7.47;3.72;;;;;;;21.85;46.30;102060.78;6184787;23;20085;-86
2022/08/29 08:53:22;;;;;;;6.93;3.10;;;;;;;21.84;45.34;102069.34;6184341;23;20087;-85
2022/08/29 08:55:52;;;;;;;6.22;3.15;;;;;;;21.90;44.47;102063.59;6182652;23;20101;-85
2022/08/29 08:58:32;;;;;;;13.93;2.95;;;;;;;22.06;44.92;102072.03;6183779;23;20497;-85
2022/08/29 09:01:03;;;;;;;6.28;2.45;;;;;;;22.18;43.46;102077.38;6185044;23;20001;-83
2022/08/29 09:03:32;;;;;;;8.85;3.10;;;;;;;22.37;43.24;102075.88;6186465;23;20344;-83
2022/08/29 09:06:25;;;;;;;8.77;2.80;;;;;;;22.44;44.10;102064.59;6186234;23;20076;-90
2022/08/29 09:09:35;;;;;;;6.30;3.13;;;;;;;22.65;44.74;102076.63;6184880;23;20012;-82
2022/08/29 09:12:31;;;;;;;8.20;3.40;;;;;;;22.77;43.38;102079.19;6174297;23;20005;-86
2022/08/29 09:15:06;;;;;;;11.05;3.63;;;;;;;22.72;42.51;102073.59;6186038;23;20008;-86
2022/08/29 09:17:51;;;;;;;6.43;3.60;;;;;;;22.72;43.42;102084.66;6184699;23;20005;-86
2022/08/29 09:20:24;;;;;;;6.63;3.50;;;;;;;22.58;42.65;102076.84;6185910;23;20005;-86
2022/08/29 09:23:00;;;;;;;8.68;3.33;;;;;;;22.65;43.31;102076.63;6186322;23;20005;-87
2022/08/29 09:25:29;;;;;;;15.20;4.13;;;;;;;22.70;42.81;102078.59;6186180;23;20055;-86
2022/08/29 09:27:58;;;;;;;11.40;3.92;;;;;;;22.72;42.51;102084.66;6184869;23;20392;-86
2022/08/29 09:30:28;;;;;;;17.58;10.20;;;;;;;22.74;42.08;102093.56;6209781;23;20005;-85
2022/08/29 09:33:00;;;;;;;10.37;4.77;;;;;;;22.84;42.39;102101.06;6186426;23;20033;-84
2022/08/29 09:36:01;;;;;;;11.95;4.70;;;;;;;22.77;42.82;102096.59;6185443;23;20016;-83
2022/08/29 09:38:27;;;;;;;12.32;3.72;;;;;;;22.68;41.93;102089.09;6179000;23;20027;-84
2022/08/29 09:41:01;;;;;;;6.37;3.23;;;;;;;22.50;42.54;102088.41;6184589;23;20138;-85
2022/08/29 09:43:47;;;;;;;9.00;3.50;;;;;;;22.50;42.80;102082.88;6184202;23;20032;-85
2022/08/29 09:46:22;;;;;;;9.73;3.30;;;;;;;22.31;42.28;102076.91;6183297;23;20507;-85
2022/08/29 09:49:13;;;;;;;8.70;3.40;;;;;;;22.28;42.19;102082.97;6159981;23;20009;-84
2022/08/29 09:51:45;;;;;;;6.75;3.20;;;;;;;22.22;42.76;102086.81;6186083;23;20084;-86
2022/08/29 09:54:15;;;;;;;8.33;2.87;;;;;;;22.24;42.35;102084.59;6184556;23;20075;-85
2022/08/29 09:57:00;;;;;;;6.97;3.10;;;;;;;22.51;42.40;102083.72;6184242;23;20047;-85
2022/08/29 09:59:35;;;;;;;7.95;3.40;;;;;;;22.53;42.15;102082.34;6184949;23;20009;-84
2022/08/29 10:02:24;;;;;;;6.18;3.67;;;;;;;22.47;42.62;102079.81;6185836;23;20059;-85
2022/08/29 10:04:52;;;;;;;9.50;3.65;;;;;;;22.42;42.27;102069.56;6184489;23;20091;-84
2022/08/29 10:07:33;;;;;;;8.33;3.40;;;;;;;22.38;42.49;102071.19;6184690;23;20017;-86
2022/08/29 10:10:13;;;;;;;11.25;3.90;;;;;;;22.48;42.99;102081.47;6184966;23;20005;-85
2022/08/29 10:12:46;;;;;;;9.13;3.53;;;;;;;22.66;42.10;102083.84;6186161;23;20005;-84
2022/08/29 10:15:17;;;;;;;7.80;3.70;;;;;;;22.76;42.40;102085.81;6187719;23;20005;-85
2022/08/29 10:20:56;;;;;;;7.27;3.70;;;;;;;22.83;42.50;102082.81;6187681;23;20020;-84
2022/08/29 10:23:32;;;;;;;9.63;3.55;;;;;;;22.74;42.24;102091.59;6186219;23;20016;-84
2022/08/29 10:26:07;;;;;;;7.18;3.40;;;;;;;22.66;42.13;102086.59;6186254;23;20043;-85
2022/08/29 10:28:42;;;;;;;8.35;3.90;;;;;;;22.77;42.40;102080.00;6187569;23;20001;-85
2022/08/29 10:31:13;;;;;;;9.23;3.28;;;;;;;23.04;42.06;102072.66;6185370;23;20005;-86
2022/08/29 10:34:00;;;;;;;9.77;3.30;;;;;;;23.38;41.02;102072.25;6187223;23;20060;-85
2022/08/29 10:36:37;;;;;;;7.65;3.10;;;;;;;23.87;40.49;102066.28;6187097;23;20100;-86
2022/08/29 10:39:21;;;;;;;9.07;3.67;;;;;;;24.08;40.15;102069.91;6185597;23;20013;-85
2022/08/29 10:41:56;;;;;;;8.75;3.80;;;;;;;23.88;40.18;102065.19;6186070;23;20001;-84
2022/08/29 10:44:34;;;;;;;8.55;3.85;;;;;;;23.95;40.53;102067.69;6186188;23;20013;-85
2022/08/29 10:47:33;;;;;;;6.83;3.37;;;;;;;24.07;40.26;102065.47;6185952;23;20009;-85
2022/08/29 10:50:35;;;;;;;7.93;3.78;;;;;;;24.21;40.24;102054.63;6187356;23;20001;-87
2022/08/29 10:53:13;;;;;;;8.10;3.90;;;;;;;24.45;39.08;102056.84;6186147;23;20015;-87
2022/08/29 10:55:52;;;;;;;9.60;4.25;;;;;;;24.54;38.76;102060.69;6186171;23;20364;-86
2022/08/29 10:58:46;;;;;;;10.35;3.78;;;;;;;24.86;38.59;102048.41;6186216;23;20334;-87
2022/08/29 11:01:37;;;;;;;9.10;3.67;;;;;;;25.51;38.77;102044.78;6186186;23;20013;-87
2022/08/29 11:04:28;;;;;;;7.65;3.58;;;;;;;25.64;38.15;102046.09;6186069;23;20099;-87
2022/08/29 11:07:06;;;;;;;7.20;3.47;;;;;;;25.88;37.37;102040.59;6186836;23;20446;-87
2022/08/29 11:09:39;;;;;;;10.38;3.72;;;;;;;26.00;36.00;102029.13;6185727;23;20013;-87
2022/08/29 11:12:14;;;;;;;6.93;3.90;;;;;;;26.07;36.06;102026.84;6186962;23;20005;-86
2022/08/29 11:14:47;;;;;;;10.60;3.93;;;;;;;26.60;35.04;102034.38;6185836;23;20063;-87
2022/08/29 11:17:16;;;;;;;12.52;3.95;;;;;;;28.30;33.76;102031.91;6185632;23;20068;-87
2022/08/29 11:19:57;;;;;;;10.18;4.47;;;;;;;31.39;29.44;102021.44;6185717;23;20005;-87
2022/08/29 11:22:39;;;;;;;7.18;3.70;;;;;;;31.89;27.69;102022.94;6184852;23;20008;-87
2022/08/29 11:25:12;;;;;;;7.30;3.83;;;;;;;32.99;26.28;102014.72;6185957;23;20009;-87
2022/08/29 11:28:16;;;;;;;8.30;3.80;;;;;;;34.64;24.36;102010.59;6185646;23;20001;-87
2022/08/29 11:30:55;;;;;;;6.03;3.70;;;;;;;36.51;22.95;102010.31;6071561;23;20433;-87
2022/08/29 11:33:48;;;;;;;7.68;3.95;;;;;;;38.43;21.78;101992.34;6171189;23;20009;-87
2022/08/29 11:36:48;;;;;;;6.63;3.88;;;;;;;40.68;19.75;101995.31;6184918;23;20012;-88
2022/08/29 11:39:41;;;;;;;8.85;3.83;;;;;;;41.52;18.13;101990.84;6184580;23;20020;-87
2022/08/29 11:42:11;;;;;;;5.83;4.20;;;;;;;41.45;16.44;101996.53;6185439;23;20005;-89
2022/08/29 11:44:47;;;;;;;9.50;4.32;;;;;;;42.11;17.00;101996.22;6185492;23;20312;-87
2022/08/29 11:47:37;;;;;;;9.23;4.30;;;;;;;42.85;17.89;101975.75;6185699;23;20001;-87
2022/08/29 11:50:14;;;;;;;12.20;4.60;;;;;;;43.16;16.68;101974.00;6185144;23;20013;-89